MMPN/UPN METAR and TAF weather

Enter ICAO airport designator
Station Type Date Time Source
MMPN METAR 2019/10/22 15:40 UTC NOAA

MMPN 221540Z 00000KT 15SM FEW100 SCT140 23/17 A3021 RMK 8/070 HZY CU


Station Type Date Time Source
MMPN Decoded METAR 2019/10/22 15:40 UTC NOAA

Uruapan / Gen Rayon, Mexico (MMPN) 19-24N 102-02W
Oct 22, 2019 - 11:40 AM EDT / 2019.10.22 1540 UTC
Wind: Calm:0
Visibility: 15 mile(s):0
Sky conditions: partly cloudy
Temperature: 73 F (23 C)
Dew Point: 62 F (17 C)
Relative Humidity: 68%
Pressure (altimeter): 30.21 in. Hg (1023 hPa)
ob: MMPN 221540Z 00000KT 15SM FEW100 SCT140 23/17 A3021 RMK 8/070 HZY CU
cycle: 15

Station Type Date Time Source
MMPN TAF 2019/10/22 13:58 UTC NOAA

TAF
AMD MMPN 221252Z 2213/2306 00000KT P6SM SKC
FM222000 20010KT P6SM BKN030CB
TEMPO 2220/2224 5SM TSRA
FM230100 00000KT P6SM BKN080

Example: see airport list